Terminal Aerodrome Forecast
Issued by NWS

Home | Current Version | Previous Version | Graphics & Text | Print | Product List | Glossary On
Versions: 1 2 3 4 5 6 7 8 9 10 11 12 13 14 15 16 17 18 19 20 21 22 23 24 25
000
FTUS43 KABR 232300
TAFATY
TAF
KATY 232333Z 2400/2424 31019G29KT P6SM BKN026 OVC030
     FM241000 34025G34KT P6SM OVC040
     FM241900 34020G30KT P6SM SCT050=

USA.gov is the U.S. government's official web portal to all federal, state and local government web resources and services.